KMWO/MWO METAR and TAF weather

Enter ICAO airport designator
Station Type Date Time Source
KMWO METAR 2021/08/05 03:55 UTC NOAA

KMWO 050355Z AUTO 01004KT 10SM BKN060 19/15 A3013 RMK AO2 T01860149


Station Type Date Time Source
KMWO Decoded METAR 2021/08/05 03:55 UTC NOAA

Station name not available
Aug 04, 2021 - 11:55 PM EDT / 2021.08.05 0355 UTC
Wind: from the N (010 degrees) at 5 MPH (4 KT):0
Visibility: 10 mile(s):0
Sky conditions: mostly cloudy
Temperature: 65.5 F (18.6 C)
Dew Point: 58.8 F (14.9 C)
Relative Humidity: 79%
Pressure (altimeter): 30.13 in. Hg (1020 hPa)
ob: KMWO 050355Z AUTO 01004KT 10SM BKN060 19/15 A3013 RMK AO2 T01860149
cycle: 4

Station Type Date Time Source
KMWO TAF UTC NOAA

Error!

Example: see airport list